Historyczne dane pomiarowe

Dodano dane terminowe – wersja testowa.

Dane z okresu 1951-2019

Wersja bazy: 1.34 [2019-03-16, lista zmian], aktualizacja planowana na 2019-04-15

Dane meteo z obszaru Polski uzyskane na podstawie danych udostępnionych przez Instytut Meteorologii i Gospodarki Wodnej – Państwowy Instytut Badawczy.

 

Wybierz Datę:    

       

TemperaturaWilgotnośćWiatrCiśnienieOpadyŚniegCzas trwania zjawisk
 Stacja t tx tn tng RH VA  wxwx mslp ppp RRR   cm mm wxwxwxwxwxwxwx
1999-08-14 12.0 15.0 8.8- 85.5- 3.7 0.7---- 0.0------------
1999-08-13 11.8 14.0 9.8- 90.3- 7.7 0.0---- 0.0------------
1999-08-12 12.7 17.5 10.4- 93.5- 8.0 0.3---- 0.9------------
1999-08-11 16.4 19.6 12.4- 86.8- 4.0 0.3---- 6.2------------
1999-08-10 19.4 25.1 15.4- 90.5- 5.7 1.3---- 21.9------------
1999-08-09 19.9 26.6 14.4- 77.0- 3.0 1.0---- 2.9------------
1999-08-08 18.9 23.7 14.6- 85.3- 5.3 0.3---- 0.0------------
1999-08-07 18.5 23.6 13.8- 81.8- 6.3 0.3---- 3.4------------
1999-08-06 17.2 23.1 13.8- 82.5- 5.7 1.0---- 3.1------------
1999-08-05 16.1 21.6 9.4- 73.3- 4.7 0.7---- 0.1------------
1999-08-04 14.1 18.1 9.8- 83.0- 5.0 0.3---- 0.0------------
1999-08-03 13.0 16.0 9.0- 88.5- 6.3 0.0---- 0.0------------
1999-08-02 12.9 15.8 9.9- 87.5- 6.7 0.0---- 0.1------------
1999-08-01 14.3 17.1 10.8- 77.8- 5.3 0.3---- 0.3------------
1999-07-31 15.2 18.1 10.6- 79.3- 5.0 0.3---- 0.8------------
1999-07-30 13.5 16.5 9.6- 80.5- 5.3 0.3---- 0.5------------
1999-07-29 13.8 16.4 10.2- 85.0- 4.3 0.7---- 0.0------------
1999-07-28 15.5 18.1 13.8- 92.0- 6.3 0.0---- 0.0------------
1999-07-27 15.9 17.9 14.4- 98.5- 8.0 0.0---- 5.8------------
1999-07-26 16.6 21.1 12.6- 88.8- 8.0 0.0---- 4.4------------
1999-07-25 15.8 20.3 9.8- 83.8- 7.3 0.0---- 0.0------------
1999-07-24 12.2 14.0 9.4- 93.8- 7.7 0.0---- 0.0------------
1999-07-23 11.9 16.0 9.4- 98.0- 8.0 0.0---- 22.3------------
1999-07-22 17.7 21.6 15.4- 84.3- 7.0 1.3---- 22.2------------
1999-07-21 20.1 24.1 15.0- 70.8- 4.7 2.7---- 2.0------------
1999-07-20 18.7 22.7 12.4- 68.0- 2.7 0.7---- 0.0------------
1999-07-19 17.0 22.1 10.8- 68.0- 2.3 0.0---- 0.0------------
1999-07-18 15.4 19.1 10.0- 73.8- 1.7 0.7---- 0.0------------
1999-07-17 14.2 17.6 9.4- 81.0- 4.0 0.3---- 0.0------------
1999-07-16 13.1 16.0 9.4- 88.0- 4.7 1.3---- 0.0------------
1999-07-15 13.2 16.2 11.6- 92.3- 7.3 2.0---- 0.2------------
1999-07-14 16.2 20.3 13.4- 88.3- 6.7 1.3---- 8.0------------
1999-07-13 17.4 20.7 14.4- 92.5- 6.0 0.0---- 9.1------------
1999-07-12 17.6 22.2 12.8- 93.0- 6.7 0.0---- 6.1------------
1999-07-11 17.0 18.1 15.2- 93.3- 7.3 1.7---- 3.6------------
1999-07-10 16.1 17.6 15.0- 94.0- 8.0 0.7---- 1.6------------
1999-07-09 16.3 19.1 12.8- 86.3- 7.7 0.0---- 10.6------------
1999-07-08 16.5 19.1 14.0- 96.8- 7.7 0.7---- 7.9------------
1999-07-07 20.5 25.1 18.0- 86.3- 6.0 0.3---- 24.9------------
1999-07-06 23.4 28.1 16.8- 59.8- 1.7 1.0---- 0.0------------
1999-07-05 21.5 27.3 15.4- 82.5- 0.0 0.3---- 0.0------------
1999-07-04 20.9 26.1 13.4- 70.8- 0.0 0.0---- 0.0------------
1999-07-03 16.2 20.1 11.8- 79.3- 5.3 0.0---- 0.0------------
1999-07-02 16.5 19.1 13.8- 82.0- 6.7 0.3---- 0.4------------
1999-07-01 17.6 21.7 13.4- 69.0- 5.3 1.3---- 0.0------------
1999-06-30 17.3 21.1 13.0- 82.0- 5.0 0.3---- 0.0------------
1999-06-29 16.0 20.3 11.6- 84.5- 6.0 0.0---- 0.0------------
1999-06-28 16.1 21.7 11.6- 79.5- 6.7 0.0---- 10.0------------
1999-06-27 16.5 23.1 9.8- 70.8- 1.7 0.3---- 0.0------------
1999-06-26 13.7 19.9 4.9- 68.8- 2.0 0.3---- 0.0------------
1999-06-25 10.1 14.2 4.5- 71.0- 3.3 0.3---- 0.0------------
1999-06-24 7.5 8.8 5.5- 92.3- 8.0 0.3---- 0.1------------
1999-06-23 5.8 6.7 4.5- 97.0- 8.0 0.3---- 9.1------------
1999-06-22 8.2 13.5 5.7- 97.0- 8.0 1.0---- 16.3------------
1999-06-21 15.3 19.1 12.9- 88.8- 5.7 0.0---- 31.2------------
1999-06-20 14.6 17.3 12.0- 94.3- 8.0 0.0---- 1.4------------
1999-06-19 13.9 17.7 11.4- 92.8- 7.3 0.7---- 0.6------------
1999-06-18 14.2 16.0 12.6- 97.0- 7.7 0.0---- 15.1------------
1999-06-17 14.5 18.1 12.2- 93.0- 7.7 0.0---- 67.2------------
1999-06-16 15.0 17.3 13.0- 95.0- 7.7 0.3---- 1.1------------
300.5 ms

 

Źródłem pochodzenia danych jest Instytut Meteorologii i Gospodarki Wodnej – Państwowy Instytut Badawczy. Dane Instytutu Meteorologii i Gospodarki Wodnej – Państwowego Instytutu Badawczego zostały przetworzone.

Dane źródłowe można odnaleźć na stronie https://dane.imgw.pl